createdAt,value
2022-10-09T00:03:04.609Z,101358.39
2022-10-09T00:08:12.453Z,101361.66
2022-10-09T00:13:19.551Z,101369.40
2022-10-09T00:18:26.475Z,101374.02
2022-10-09T00:23:33.830Z,101374.67
2022-10-09T00:28:41.400Z,101382.30
2022-10-09T00:33:48.846Z,101386.30
2022-10-09T00:38:56.283Z,101395.38
2022-10-09T00:44:10.932Z,101396.92
2022-10-09T00:49:25.926Z,101395.77
2022-10-09T00:54:35.280Z,101398.13
2022-10-09T00:59:42.924Z,101402.95
2022-10-09T01:04:50.103Z,101406.78
2022-10-09T01:10:03.168Z,101410.43
2022-10-09T01:15:18.977Z,101411.86
2022-10-09T01:20:33.293Z,101414.71
2022-10-09T01:25:55.457Z,101417.13
2022-10-09T01:31:06.678Z,101415.17
2022-10-09T01:36:15.179Z,101423.17
2022-10-09T01:41:23.540Z,101427.09
2022-10-09T01:46:33.896Z,101431.43
2022-10-09T01:51:49.019Z,101436.85
2022-10-09T01:57:01.212Z,101444.48
2022-10-09T02:02:09.965Z,101446.02
2022-10-09T02:07:17.884Z,101452.17
2022-10-09T02:12:28.255Z,101460.02
2022-10-09T02:17:40.671Z,101467.06
2022-10-09T02:22:50.753Z,101475.02
2022-10-09T02:27:59.011Z,101481.11
2022-10-09T02:33:04.997Z,101490.39
2022-10-09T02:38:11.987Z,101499.25
2022-10-09T02:43:19.140Z,101501.05
2022-10-09T02:48:26.157Z,101512.11
2022-10-09T02:53:33.341Z,101509.99
2022-10-09T02:58:41.463Z,101518.26
2022-10-09T03:03:49.235Z,101521.52
2022-10-09T03:08:57.107Z,101524.05
2022-10-09T03:14:04.243Z,101529.29
2022-10-09T03:19:11.600Z,101533.17
2022-10-09T03:24:18.556Z,101537.45
2022-10-09T03:29:25.811Z,101543.84
2022-10-09T03:34:32.884Z,101549.14
2022-10-09T03:39:39.857Z,101555.75
2022-10-09T03:44:47.327Z,101550.23
2022-10-09T03:49:54.252Z,101557.57
2022-10-09T03:55:01.268Z,101566.25
2022-10-09T04:00:10.658Z,101578.24
2022-10-09T04:05:17.928Z,101575.23
2022-10-09T04:10:24.879Z,101588.25
2022-10-09T04:15:31.915Z,101588.20
2022-10-09T04:20:45.475Z,101592.52
2022-10-09T04:25:56.011Z,101599.44
2022-10-09T04:31:03.120Z,101598.88
2022-10-09T04:36:10.538Z,101602.41
2022-10-09T04:41:17.585Z,101609.38
2022-10-09T04:46:25.200Z,101615.79
2022-10-09T04:51:32.355Z,101627.33
2022-10-09T04:56:39.402Z,101630.69
2022-10-09T05:01:46.556Z,101638.39
2022-10-09T05:06:53.660Z,101642.80
2022-10-09T05:12:00.637Z,101641.41
2022-10-09T05:17:15.277Z,101653.66
2022-10-09T05:22:23.223Z,101657.60
2022-10-09T05:27:30.140Z,101664.98
2022-10-09T05:32:37.135Z,101672.70
2022-10-09T05:37:46.847Z,101679.67
2022-10-09T05:42:53.948Z,101680.34
2022-10-09T05:48:00.972Z,101688.94
2022-10-09T05:53:08.057Z,101702.13
2022-10-09T05:58:15.142Z,101713.04
2022-10-09T06:03:22.314Z,101725.98
2022-10-09T06:08:29.420Z,101734.92
2022-10-09T06:13:36.683Z,101745.18
2022-10-09T06:18:49.125Z,101750.23
2022-10-09T06:23:58.735Z,101760.09
2022-10-09T06:29:10.362Z,101772.54
2022-10-09T06:34:17.714Z,101775.48
2022-10-09T06:39:28.596Z,101775.87
2022-10-09T06:44:36.143Z,101774.20
2022-10-09T06:49:59.005Z,101781.96
2022-10-09T06:55:14.531Z,101796.64
2022-10-09T07:00:23.332Z,101805.27
2022-10-09T07:05:30.982Z,101805.05
2022-10-09T07:10:41.723Z,101813.73
2022-10-09T07:15:49.297Z,101824.98
2022-10-09T07:20:58.168Z,101832.73
2022-10-09T07:26:16.158Z,101839.28
2022-10-09T07:31:24.172Z,101843.73
2022-10-09T07:36:34.231Z,101848.40
2022-10-09T07:41:41.959Z,101852.90
2022-10-09T07:46:50.444Z,101862.86
2022-10-09T07:51:58.922Z,101866.02
2022-10-09T07:57:07.136Z,101871.67
2022-10-09T08:02:15.969Z,101877.99
2022-10-09T08:07:23.035Z,101885.18
2022-10-09T08:12:30.175Z,101890.95
2022-10-09T08:17:37.219Z,101897.48
2022-10-09T08:23:05.781Z,101901.64
2022-10-09T08:28:16.676Z,101899.59
2022-10-09T08:33:23.598Z,101905.85
2022-10-09T08:38:46.562Z,101910.68
2022-10-09T08:44:04.279Z,101914.60
2022-10-09T08:49:23.716Z,101918.77
2022-10-09T08:54:35.801Z,101920.05
2022-10-09T08:59:43.301Z,101917.08
2022-10-09T09:05:14.290Z,101918.48
2022-10-09T09:10:35.612Z,101920.55
2022-10-09T09:15:51.451Z,101923.11
2022-10-09T09:21:03.592Z,101925.99
2022-10-09T09:26:17.489Z,101931.05
2022-10-09T09:31:28.450Z,101937.83
2022-10-09T09:36:41.557Z,101931.88
2022-10-09T09:41:48.564Z,101931.86
2022-10-09T09:46:55.931Z,101929.37
2022-10-09T09:52:03.938Z,101933.20
2022-10-09T09:57:15.069Z,101937.10
2022-10-09T10:02:29.080Z,101937.88
2022-10-09T10:07:38.445Z,101940.23
2022-10-09T10:12:54.677Z,101946.90
2022-10-09T10:18:07.327Z,101944.68
2022-10-09T10:23:26.239Z,101942.77
2022-10-09T10:28:38.331Z,101941.60
2022-10-09T10:33:51.962Z,101935.52
2022-10-09T10:39:08.085Z,101933.98
2022-10-09T10:44:24.267Z,101940.20
2022-10-09T10:49:33.958Z,101942.06
2022-10-09T10:54:44.386Z,101947.19
2022-10-09T11:00:04.286Z,101950.71
2022-10-09T11:05:20.347Z,101953.67
2022-10-09T11:10:35.470Z,101953.89
2022-10-09T11:15:53.224Z,101953.20
2022-10-09T11:21:34.565Z,101947.02
2022-10-09T11:26:50.314Z,101946.54
2022-10-09T11:32:05.244Z,101940.92
2022-10-09T11:37:24.172Z,101944.05
2022-10-09T11:42:34.227Z,101945.13
2022-10-09T11:47:52.640Z,101937.80
2022-10-09T11:53:05.245Z,101936.15
2022-10-09T11:58:22.273Z,101941.20
2022-10-09T12:03:34.041Z,101938.70
2022-10-09T12:08:43.511Z,101940.68
2022-10-09T12:13:54.692Z,101946.30
2022-10-09T12:19:03.926Z,101943.29
2022-10-09T12:24:20.623Z,101939.15
2022-10-09T12:29:31.671Z,101934.13
2022-10-09T12:34:44.980Z,101931.45
2022-10-09T12:39:52.297Z,101926.40
2022-10-09T12:45:01.350Z,101926.41
2022-10-09T12:50:24.772Z,101925.73
2022-10-09T12:55:36.952Z,101926.13
2022-10-09T13:00:44.297Z,101924.73
2022-10-09T13:05:52.275Z,101916.66
2022-10-09T13:11:11.638Z,101914.46
2022-10-09T13:16:19.536Z,101918.86
2022-10-09T13:21:31.502Z,101924.23
2022-10-09T13:26:44.078Z,101926.73
2022-10-09T13:31:51.488Z,101918.56
2022-10-09T13:36:58.993Z,101913.66
2022-10-09T13:42:07.234Z,101916.16
2022-10-09T13:47:14.485Z,101921.32
2022-10-09T13:52:21.761Z,101916.67
2022-10-09T13:57:29.822Z,101916.36
2022-10-09T14:02:37.523Z,101917.70
2022-10-09T14:07:45.279Z,101918.39
2022-10-09T14:12:53.495Z,101919.44
2022-10-09T14:18:01.082Z,101920.16
2022-10-09T14:23:06.979Z,101920.21
2022-10-09T14:28:14.853Z,101924.63
2022-10-09T14:33:22.807Z,101918.48
2022-10-09T14:38:30.125Z,101913.13
2022-10-09T14:44:06.468Z,101910.52
2022-10-09T14:49:26.074Z,101905.41
2022-10-09T14:54:39.909Z,101907.80
2022-10-09T14:59:49.039Z,101906.31
2022-10-09T15:04:56.293Z,101907.49
2022-10-09T15:10:03.724Z,101909.42
2022-10-09T15:15:12.715Z,101905.48
2022-10-09T15:20:20.029Z,101906.05
2022-10-09T15:25:31.510Z,101906.12
2022-10-09T15:30:47.517Z,101906.77
2022-10-09T15:35:57.779Z,101907.14
2022-10-09T15:41:07.495Z,101910.70
2022-10-09T15:46:27.695Z,101911.65
2022-10-09T15:51:38.088Z,101915.46
2022-10-09T15:56:45.547Z,101916.13
2022-10-09T16:01:52.816Z,101916.66
2022-10-09T16:07:00.174Z,101914.54
2022-10-09T16:12:07.646Z,101912.35
2022-10-09T16:17:14.880Z,101922.98
2022-10-09T16:22:22.561Z,101927.77
2022-10-09T16:27:30.033Z,101930.32
2022-10-09T16:32:37.213Z,101935.27
2022-10-09T16:37:54.706Z,101945.21
2022-10-09T16:43:02.364Z,101941.88
2022-10-09T16:48:09.778Z,101938.92
2022-10-09T16:53:21.423Z,101940.68
2022-10-09T16:58:28.791Z,101941.13
2022-10-09T17:03:36.462Z,101938.58
2022-10-09T17:08:43.546Z,101945.65
2022-10-09T17:13:58.008Z,101950.15
2022-10-09T17:19:06.502Z,101957.13
2022-10-09T17:24:19.765Z,101964.90
2022-10-09T17:29:28.590Z,101964.23
2022-10-09T17:35:14.729Z,101969.35
2022-10-09T17:40:46.770Z,101974.58
2022-10-09T17:45:56.680Z,101972.46
2022-10-09T17:51:18.845Z,101968.41
2022-10-09T17:56:26.889Z,101973.16
2022-10-09T18:01:34.699Z,101978.45
2022-10-09T18:06:40.450Z,101978.48
2022-10-09T18:11:47.685Z,101979.96
2022-10-09T18:16:55.291Z,101979.38
2022-10-09T18:22:02.994Z,101985.05
2022-10-09T18:27:12.939Z,101986.63
2022-10-09T18:32:20.686Z,101986.30
2022-10-09T18:37:31.279Z,101982.65
2022-10-09T18:42:38.747Z,101985.00
2022-10-09T18:47:46.978Z,101985.46
2022-10-09T18:52:55.522Z,101990.02
2022-10-09T18:58:07.149Z,101988.80
2022-10-09T19:03:14.464Z,101990.08
2022-10-09T19:08:22.319Z,101989.83
2022-10-09T19:13:29.760Z,101990.08
2022-10-09T19:18:37.313Z,101992.77
2022-10-09T19:23:47.740Z,101998.78
2022-10-09T19:28:58.037Z,102000.16
2022-10-09T19:34:19.038Z,102000.04
2022-10-09T19:39:29.327Z,101997.91
2022-10-09T19:44:35.238Z,101996.91
2022-10-09T19:49:43.520Z,101995.58
2022-10-09T19:54:53.428Z,101998.64
2022-10-09T20:00:03.210Z,101998.13
2022-10-09T20:05:15.614Z,102004.24
2022-10-09T20:10:23.207Z,101999.46
2022-10-09T20:15:31.782Z,101993.28
2022-10-09T20:20:42.422Z,101994.23
2022-10-09T20:26:08.227Z,101994.73
2022-10-09T20:31:18.900Z,101994.94
2022-10-09T20:36:30.326Z,101993.69
2022-10-09T20:41:39.249Z,101989.64
2022-10-09T20:46:50.236Z,101982.16
2022-10-09T20:52:00.413Z,101975.95
2022-10-09T20:57:13.941Z,101975.67
2022-10-09T21:02:23.350Z,101980.95
2022-10-09T21:07:36.131Z,101990.25
2022-10-09T21:12:43.986Z,101995.42
2022-10-09T21:17:56.756Z,101991.34
2022-10-09T21:23:05.954Z,101997.44
2022-10-09T21:28:14.601Z,101988.54
2022-10-09T21:33:23.455Z,101988.02
2022-10-09T21:38:33.550Z,101986.03
2022-10-09T21:43:41.488Z,101985.70
2022-10-09T21:48:49.076Z,101984.73
2022-10-09T21:53:57.968Z,101980.27
2022-10-09T21:59:06.858Z,101984.37
2022-10-09T22:04:14.876Z,101979.30
2022-10-09T22:09:25.595Z,101973.52
2022-10-09T22:14:40.184Z,101974.55
2022-10-09T22:19:47.826Z,101969.30
2022-10-09T22:25:01.142Z,101973.61
2022-10-09T22:30:22.372Z,101974.57
2022-10-09T22:35:30.876Z,101973.73
2022-10-09T22:40:38.488Z,101971.52
2022-10-09T22:45:46.002Z,101977.13
2022-10-09T22:50:57.040Z,101977.49
2022-10-09T22:56:08.035Z,101985.67
2022-10-09T23:01:22.056Z,101978.16
2022-10-09T23:06:30.113Z,101978.56
2022-10-09T23:11:38.370Z,101973.80
2022-10-09T23:16:47.500Z,101974.48
2022-10-09T23:21:55.705Z,101964.52
2022-10-09T23:27:03.340Z,101963.27
2022-10-09T23:32:11.888Z,101961.04
2022-10-09T23:37:19.919Z,101965.73
2022-10-09T23:42:29.674Z,101971.99
2022-10-09T23:47:37.611Z,101970.98
2022-10-09T23:52:43.856Z,101968.05
2022-10-09T23:57:54.769Z,101966.67
